createdAt,value
2018-09-18T00:00:20.988Z,0.00
2018-09-18T00:01:20.992Z,0.00
2018-09-18T00:02:20.990Z,0.00
2018-09-18T00:03:20.993Z,0.00
2018-09-18T00:04:20.991Z,0.00
2018-09-18T00:05:21.000Z,0.00
2018-09-18T00:06:20.997Z,0.00
2018-09-18T00:07:20.995Z,0.00
2018-09-18T00:08:21.005Z,0.00
2018-09-18T00:09:21.002Z,0.00
2018-09-18T00:10:21.005Z,0.00
2018-09-18T00:11:21.033Z,0.00
2018-09-18T00:12:21.029Z,0.00
2018-09-18T00:13:21.010Z,0.00
2018-09-18T00:14:21.014Z,0.00
2018-09-18T00:15:21.011Z,0.00
2018-09-18T00:16:21.012Z,0.00
2018-09-18T00:17:21.020Z,0.00
2018-09-18T00:18:21.013Z,0.00
2018-09-18T00:19:21.016Z,0.00
2018-09-18T00:20:21.015Z,0.00
2018-09-18T00:21:21.017Z,0.00
2018-09-18T00:22:21.026Z,0.00
2018-09-18T00:23:21.022Z,0.00
2018-09-18T00:24:21.027Z,0.00
2018-09-18T00:25:21.029Z,0.00
2018-09-18T00:26:21.025Z,0.00
2018-09-18T00:27:21.026Z,0.00
2018-09-18T00:28:21.036Z,0.00
2018-09-18T00:29:21.041Z,0.00
2018-09-18T00:30:21.038Z,0.00
2018-09-18T00:31:21.067Z,0.00
2018-09-18T00:32:21.034Z,0.00
2018-09-18T00:33:21.033Z,0.00
2018-09-18T00:34:21.037Z,0.00
2018-09-18T00:35:21.034Z,0.00
2018-09-18T00:36:21.039Z,0.00
2018-09-18T00:37:21.052Z,0.00
2018-09-18T00:38:21.041Z,0.00
2018-09-18T00:39:21.047Z,0.00
2018-09-18T00:40:21.043Z,0.00
2018-09-18T00:41:21.046Z,0.00
2018-09-18T00:42:21.057Z,0.00
2018-09-18T00:43:21.047Z,0.00
2018-09-18T00:44:21.049Z,0.00
2018-09-18T00:45:21.046Z,0.00
2018-09-18T00:46:21.048Z,0.00
2018-09-18T00:47:21.057Z,0.00
2018-09-18T00:48:21.054Z,0.00
2018-09-18T00:49:21.072Z,0.00
2018-09-18T00:50:21.061Z,0.00
2018-09-18T00:51:21.074Z,0.00
2018-09-18T00:52:21.053Z,0.00
2018-09-18T00:53:21.052Z,0.00
2018-09-18T00:54:21.064Z,0.00
2018-09-18T00:55:21.068Z,0.00
2018-09-18T00:56:21.064Z,0.00
2018-09-18T00:57:21.061Z,0.00
2018-09-18T00:58:21.063Z,0.00
2018-09-18T00:59:21.063Z,0.00
2018-09-18T01:00:21.063Z,0.00
2018-09-18T01:01:21.069Z,0.00
2018-09-18T01:02:21.068Z,0.00
2018-09-18T01:03:21.063Z,0.00
2018-09-18T01:04:21.071Z,0.00
2018-09-18T01:05:21.118Z,0.00
2018-09-18T01:06:21.071Z,0.00
2018-09-18T01:07:21.074Z,0.00
2018-09-18T01:08:21.080Z,0.00
2018-09-18T01:09:21.070Z,0.00
2018-09-18T01:10:21.075Z,0.00
2018-09-18T01:11:21.072Z,0.00
2018-09-18T01:12:21.074Z,0.00
2018-09-18T01:13:21.081Z,0.00
2018-09-18T01:14:21.086Z,0.00
2018-09-18T01:15:21.078Z,0.00
2018-09-18T01:16:21.083Z,0.00
2018-09-18T01:17:21.081Z,0.00
2018-09-18T01:18:21.101Z,0.00
2018-09-18T01:19:21.078Z,0.00
2018-09-18T01:20:21.079Z,0.00
2018-09-18T01:21:21.082Z,0.00
2018-09-18T01:22:21.093Z,0.00
2018-09-18T01:23:21.085Z,0.00
2018-09-18T01:24:21.093Z,0.00
2018-09-18T01:25:21.106Z,0.00
2018-09-18T01:26:21.120Z,0.00
2018-09-18T01:27:21.088Z,0.00
2018-09-18T01:28:21.087Z,0.00
2018-09-18T01:29:21.088Z,0.00
2018-09-18T01:30:21.090Z,0.00
2018-09-18T01:31:21.090Z,0.00
2018-09-18T01:32:21.092Z,0.00
2018-09-18T01:33:21.100Z,0.00
2018-09-18T01:34:21.097Z,0.00
2018-09-18T01:35:21.094Z,0.00
2018-09-18T01:36:21.102Z,0.00
2018-09-18T01:37:21.098Z,0.00
2018-09-18T01:38:21.152Z,0.00
2018-09-18T01:39:21.111Z,0.00
2018-09-18T01:40:21.109Z,0.00
2018-09-18T01:41:21.118Z,0.00
2018-09-18T01:42:21.108Z,0.00
2018-09-18T01:43:21.114Z,0.00
2018-09-18T01:44:21.101Z,0.00
2018-09-18T01:45:21.106Z,0.00
2018-09-18T01:46:21.100Z,0.00
2018-09-18T01:47:21.105Z,0.00
2018-09-18T01:48:21.106Z,0.00
2018-09-18T01:49:21.111Z,0.00
2018-09-18T01:50:21.115Z,0.00
2018-09-18T01:51:21.112Z,0.00
2018-09-18T01:52:21.112Z,0.00
2018-09-18T01:53:21.115Z,0.00
2018-09-18T01:54:21.109Z,0.00
2018-09-18T01:55:21.112Z,0.00
2018-09-18T01:56:21.117Z,0.00
2018-09-18T01:57:21.115Z,0.00
2018-09-18T01:58:21.125Z,0.00
2018-09-18T01:59:21.116Z,0.00
2018-09-18T02:00:21.114Z,0.00
2018-09-18T02:01:21.113Z,0.00
2018-09-18T02:02:21.116Z,0.00
2018-09-18T02:03:21.114Z,0.00
2018-09-18T02:04:21.116Z,0.00
2018-09-18T02:05:21.116Z,0.00
2018-09-18T02:06:21.124Z,0.00
2018-09-18T02:07:21.121Z,0.00
2018-09-18T02:08:21.121Z,0.00
2018-09-18T02:09:21.124Z,0.00
2018-09-18T02:10:21.122Z,0.00
2018-09-18T02:11:21.123Z,0.00
2018-09-18T02:12:21.116Z,0.00
2018-09-18T02:13:21.122Z,0.00
2018-09-18T02:14:21.129Z,0.00
2018-09-18T02:15:21.125Z,0.00
2018-09-18T02:16:21.124Z,0.00
2018-09-18T02:17:21.126Z,0.00
2018-09-18T02:18:21.158Z,0.00
2018-09-18T02:19:21.128Z,0.00
2018-09-18T02:20:21.128Z,0.00
2018-09-18T02:21:21.131Z,0.00
2018-09-18T02:22:21.126Z,0.00
2018-09-18T02:23:21.135Z,0.00
2018-09-18T02:24:21.135Z,0.00
2018-09-18T02:25:21.128Z,0.00
2018-09-18T02:26:21.132Z,0.00
2018-09-18T02:27:21.121Z,0.00
2018-09-18T02:28:21.131Z,0.00
2018-09-18T02:29:21.127Z,0.00
2018-09-18T02:30:21.132Z,0.00
2018-09-18T02:31:21.139Z,0.00
2018-09-18T02:32:21.129Z,0.00
2018-09-18T02:33:21.133Z,0.00
2018-09-18T02:34:21.130Z,0.00
2018-09-18T02:35:21.131Z,0.00
2018-09-18T02:36:21.136Z,0.00
2018-09-18T02:37:21.134Z,0.00
2018-09-18T02:38:21.134Z,0.00
2018-09-18T02:39:21.124Z,0.00
2018-09-18T02:40:21.138Z,0.00
2018-09-18T02:41:21.131Z,0.00
2018-09-18T02:42:21.127Z,0.00
2018-09-18T02:43:21.141Z,0.00
2018-09-18T02:44:21.134Z,0.00
2018-09-18T02:45:21.141Z,0.00
2018-09-18T02:46:21.132Z,0.00
2018-09-18T02:47:21.136Z,0.00
2018-09-18T02:48:21.130Z,0.00
2018-09-18T02:49:21.140Z,0.00
2018-09-18T02:50:21.132Z,0.00
2018-09-18T02:51:21.135Z,0.00
2018-09-18T02:52:21.135Z,0.00
2018-09-18T02:53:21.141Z,0.00
2018-09-18T02:54:21.137Z,0.00
2018-09-18T02:55:21.140Z,0.00
2018-09-18T03:14:32.231Z,0.00
2018-09-18T03:15:32.211Z,0.00
2018-09-18T03:16:32.207Z,0.00
2018-09-18T03:17:32.200Z,0.00
2018-09-18T03:18:32.197Z,0.00
2018-09-18T03:19:32.197Z,0.00
2018-09-18T03:20:32.199Z,0.00
2018-09-18T03:21:32.189Z,0.00
2018-09-18T03:22:32.186Z,0.00
2018-09-18T03:23:32.184Z,0.00
2018-09-18T03:24:32.182Z,0.00
2018-09-18T03:25:32.184Z,0.00
2018-09-18T03:26:32.186Z,0.00
2018-09-18T03:27:32.222Z,0.00
2018-09-18T03:28:32.173Z,0.00
2018-09-18T03:29:32.180Z,0.00
2018-09-18T03:30:32.175Z,0.00
2018-09-18T03:31:32.178Z,0.00
2018-09-18T03:32:32.177Z,0.00
2018-09-18T03:33:32.193Z,0.00
2018-09-18T03:34:32.173Z,0.00
2018-09-18T03:35:32.214Z,0.00
2018-09-18T03:36:32.171Z,0.00
2018-09-18T03:37:32.170Z,0.00
2018-09-18T03:38:32.177Z,0.00
2018-09-18T03:39:32.170Z,0.00
2018-09-18T03:40:32.171Z,0.00
2018-09-18T03:41:32.166Z,0.00
2018-09-18T03:42:32.169Z,0.00
2018-09-18T03:43:32.166Z,0.00
2018-09-18T03:44:32.169Z,0.00
2018-09-18T03:45:32.168Z,0.00
2018-09-18T03:46:32.175Z,0.00
2018-09-18T03:47:32.163Z,0.00
2018-09-18T03:48:32.162Z,0.00
2018-09-18T03:49:32.164Z,0.00
2018-09-18T03:50:32.164Z,0.00
2018-09-18T03:51:32.164Z,0.00
2018-09-18T03:52:32.157Z,0.00
2018-09-18T03:53:32.164Z,0.00
2018-09-18T03:54:32.164Z,0.00
2018-09-18T03:55:32.201Z,0.00
2018-09-18T03:56:32.155Z,0.00
2018-09-18T03:57:32.158Z,0.00
2018-09-18T03:58:32.164Z,0.00
2018-09-18T03:59:32.159Z,0.00
2018-09-18T04:00:32.161Z,0.00
2018-09-18T04:01:32.169Z,0.00
2018-09-18T04:02:32.157Z,0.00
2018-09-18T04:03:32.152Z,0.00
2018-09-18T04:04:32.159Z,0.00
2018-09-18T04:05:32.150Z,0.00
2018-09-18T04:06:32.154Z,0.00
2018-09-18T04:07:32.155Z,0.00
2018-09-18T04:08:32.157Z,0.00
2018-09-18T04:09:32.154Z,0.00
2018-09-18T04:10:32.151Z,0.00
2018-09-18T04:11:32.155Z,0.00
2018-09-18T04:12:32.149Z,0.00
2018-09-18T04:13:32.149Z,0.00
2018-09-18T04:14:32.152Z,0.00
2018-09-18T04:15:32.153Z,0.00
2018-09-18T04:16:32.146Z,0.00
2018-09-18T04:17:32.210Z,0.00
2018-09-18T04:18:32.145Z,0.00
2018-09-18T04:19:32.151Z,0.00
2018-09-18T04:20:32.146Z,0.00
2018-09-18T04:21:32.148Z,0.00
2018-09-18T04:22:32.152Z,0.00
2018-09-18T04:23:32.149Z,0.00
2018-09-18T04:24:32.141Z,0.00
2018-09-18T04:25:32.144Z,0.00
2018-09-18T04:26:32.143Z,0.00
2018-09-18T04:27:32.144Z,0.00
2018-09-18T04:28:32.144Z,0.00
2018-09-18T04:29:32.139Z,0.00
2018-09-18T04:30:32.144Z,0.00
2018-09-18T04:31:32.135Z,0.00
2018-09-18T04:32:32.147Z,0.00
2018-09-18T04:33:32.141Z,0.00
2018-09-18T04:34:32.138Z,0.00
2018-09-18T04:35:32.140Z,0.00
2018-09-18T04:36:32.150Z,0.00
2018-09-18T04:37:32.135Z,0.00
2018-09-18T04:38:32.134Z,4.00
2018-09-18T04:39:32.136Z,4.00
2018-09-18T04:40:32.134Z,0.00
2018-09-18T04:41:32.143Z,4.00
2018-09-18T04:42:32.142Z,4.00
2018-09-18T04:43:32.136Z,4.00
2018-09-18T04:44:32.135Z,4.00
2018-09-18T04:45:32.134Z,4.00
2018-09-18T04:46:32.155Z,8.00
2018-09-18T04:47:32.133Z,12.00
2018-09-18T04:48:32.129Z,12.00
2018-09-18T04:49:32.133Z,16.00
2018-09-18T04:50:32.133Z,16.00
2018-09-18T04:51:32.257Z,20.00
2018-09-18T04:52:32.134Z,24.00
2018-09-18T04:53:32.133Z,28.00
2018-09-18T04:54:32.132Z,32.00
2018-09-18T04:55:32.125Z,32.00
2018-09-18T04:56:32.128Z,40.00
2018-09-18T04:57:32.129Z,44.00
2018-09-18T04:58:32.126Z,44.00
2018-09-18T04:59:32.130Z,52.00
2018-09-18T05:00:32.128Z,56.00
2018-09-18T05:01:32.123Z,64.00
2018-09-18T05:02:32.120Z,68.00
2018-09-18T05:03:32.124Z,76.00
2018-09-18T05:04:32.120Z,84.00
2018-09-18T05:05:32.122Z,92.00
2018-09-18T05:06:32.114Z,100.00
2018-09-18T05:07:32.123Z,112.00
2018-09-18T05:08:32.147Z,120.00
2018-09-18T05:09:32.123Z,128.00
2018-09-18T05:10:32.117Z,140.00
2018-09-18T05:11:32.118Z,152.00
2018-09-18T05:12:32.111Z,164.00
2018-09-18T05:13:32.113Z,176.00
2018-09-18T05:14:32.113Z,192.00
2018-09-18T05:15:32.114Z,208.00
2018-09-18T05:16:32.114Z,224.00
2018-09-18T05:17:32.109Z,244.00
2018-09-18T05:18:32.111Z,260.00
2018-09-18T05:19:32.115Z,276.00
2018-09-18T05:20:32.111Z,296.00
2018-09-18T05:21:32.109Z,316.00
2018-09-18T05:22:32.109Z,340.00
2018-09-18T05:23:32.104Z,376.00
2018-09-18T05:24:32.115Z,424.00
2018-09-18T05:25:32.163Z,480.00
2018-09-18T05:26:32.143Z,512.00
2018-09-18T05:27:32.114Z,572.00
2018-09-18T05:28:32.099Z,1784.00
2018-09-18T05:29:32.103Z,2576.00
2018-09-18T05:30:32.104Z,1848.00
2018-09-18T05:31:32.099Z,740.00
2018-09-18T05:32:32.095Z,728.00
2018-09-18T05:33:32.127Z,736.00
2018-09-18T05:34:32.103Z,744.00
2018-09-18T05:35:32.097Z,764.00
2018-09-18T05:36:32.105Z,800.00
2018-09-18T05:37:32.104Z,828.00
2018-09-18T05:38:32.099Z,860.00
2018-09-18T05:39:32.097Z,888.00
2018-09-18T05:40:32.096Z,912.00
2018-09-18T05:41:32.086Z,928.00
2018-09-18T05:42:32.098Z,948.00
2018-09-18T05:43:32.095Z,972.00
2018-09-18T05:44:32.098Z,992.00
2018-09-18T05:45:32.100Z,1016.00
2018-09-18T05:46:32.091Z,1040.00
2018-09-18T05:47:32.092Z,1052.00
2018-09-18T05:48:32.093Z,1064.00
2018-09-18T05:49:32.091Z,1080.00
2018-09-18T05:50:32.097Z,1096.00
2018-09-18T05:51:32.103Z,1112.00
2018-09-18T05:52:32.098Z,1128.00
2018-09-18T05:53:32.091Z,1144.00
2018-09-18T05:54:32.089Z,1156.00
2018-09-18T05:55:32.084Z,1172.00
2018-09-18T05:56:32.087Z,1180.00
2018-09-18T05:57:32.085Z,1192.00
2018-09-18T05:58:32.083Z,1204.00
2018-09-18T05:59:32.084Z,1232.00
2018-09-18T06:00:32.084Z,1392.00
2018-09-18T06:01:32.085Z,1404.00
2018-09-18T06:02:32.082Z,1416.00
2018-09-18T06:03:32.084Z,1440.00
2018-09-18T06:04:32.078Z,1444.00
2018-09-18T06:05:32.085Z,1460.00
2018-09-18T06:06:32.091Z,1468.00
2018-09-18T06:07:32.082Z,1460.00
2018-09-18T06:08:32.076Z,1356.00
2018-09-18T06:09:32.083Z,1360.00
2018-09-18T06:10:32.082Z,1360.00
2018-09-18T06:11:32.117Z,1372.00
2018-09-18T06:12:32.138Z,1372.00
2018-09-18T06:13:32.084Z,1384.00
2018-09-18T06:14:32.082Z,1368.00
2018-09-18T06:15:32.073Z,1376.00
2018-09-18T06:16:32.081Z,1380.00
2018-09-18T06:17:32.081Z,1388.00
2018-09-18T06:18:32.084Z,1396.00
2018-09-18T06:19:32.084Z,1392.00
2018-09-18T06:20:32.083Z,1396.00
2018-09-18T06:21:32.082Z,1384.00
2018-09-18T06:22:32.085Z,1404.00
2018-09-18T06:23:32.077Z,1408.00
2018-09-18T06:24:32.081Z,1420.00
2018-09-18T06:25:32.076Z,1424.00
2018-09-18T06:26:32.076Z,1428.00
2018-09-18T06:27:32.078Z,1436.00
2018-09-18T06:28:32.081Z,1436.00
2018-09-18T06:29:32.085Z,1440.00
2018-09-18T06:30:32.073Z,1440.00
2018-09-18T06:31:32.085Z,1440.00
2018-09-18T06:32:32.075Z,1440.00
2018-09-18T06:33:32.083Z,1440.00
2018-09-18T06:34:32.079Z,1440.00
2018-09-18T06:35:32.083Z,1444.00
2018-09-18T06:36:32.077Z,1428.00
2018-09-18T06:37:32.084Z,1436.00
2018-09-18T06:38:32.073Z,1424.00
2018-09-18T06:39:32.079Z,1428.00
2018-09-18T06:40:32.089Z,1312.00
2018-09-18T06:41:32.082Z,748.00
2018-09-18T06:42:32.089Z,744.00
2018-09-18T06:43:32.089Z,740.00
2018-09-18T06:44:32.081Z,744.00
2018-09-18T06:45:32.091Z,736.00
2018-09-18T06:46:32.081Z,732.00
2018-09-18T06:47:32.085Z,708.00
2018-09-18T06:48:32.089Z,712.00
2018-09-18T06:49:32.084Z,700.00
2018-09-18T06:50:32.088Z,704.00
2018-09-18T06:51:32.081Z,712.00
2018-09-18T06:52:32.077Z,704.00
2018-09-18T06:53:32.081Z,676.00
2018-09-18T06:54:32.099Z,708.00
2018-09-18T06:55:32.085Z,720.00
2018-09-18T06:56:32.098Z,688.00
2018-09-18T06:57:32.100Z,688.00
2018-09-18T06:58:32.088Z,696.00
2018-09-18T06:59:32.089Z,696.00
2018-09-18T07:00:32.098Z,720.00
2018-09-18T07:01:32.083Z,700.00
2018-09-18T07:02:32.082Z,704.00
2018-09-18T07:03:32.099Z,716.00
2018-09-18T07:04:32.113Z,708.00
2018-09-18T07:05:32.140Z,700.00
2018-09-18T07:06:32.093Z,704.00
2018-09-18T07:07:32.084Z,704.00
2018-09-18T07:08:32.101Z,696.00
2018-09-18T07:09:32.086Z,704.00
2018-09-18T07:10:32.090Z,704.00
2018-09-18T07:11:32.097Z,692.00
2018-09-18T07:12:32.087Z,700.00
2018-09-18T07:13:32.085Z,700.00
2018-09-18T07:14:32.092Z,708.00
2018-09-18T07:15:32.092Z,740.00
2018-09-18T07:16:32.091Z,704.00
2018-09-18T07:17:32.086Z,700.00
2018-09-18T07:18:32.089Z,696.00
2018-09-18T07:19:32.099Z,696.00
2018-09-18T07:20:32.095Z,696.00
2018-09-18T07:21:32.096Z,700.00
2018-09-18T07:22:32.097Z,700.00
2018-09-18T07:23:32.096Z,704.00
2018-09-18T07:24:32.097Z,708.00
2018-09-18T07:25:32.100Z,688.00
2018-09-18T07:26:32.094Z,704.00
2018-09-18T07:27:32.104Z,696.00
2018-09-18T07:28:32.134Z,692.00
2018-09-18T07:29:32.144Z,700.00
2018-09-18T07:30:32.103Z,696.00
2018-09-18T07:31:32.105Z,696.00
2018-09-18T07:32:32.111Z,700.00
2018-09-18T07:33:32.101Z,696.00
2018-09-18T07:34:32.104Z,700.00
2018-09-18T07:35:32.099Z,700.00
2018-09-18T07:36:32.106Z,692.00
2018-09-18T07:37:32.103Z,692.00
2018-09-18T07:38:32.117Z,692.00
2018-09-18T07:39:32.119Z,692.00
2018-09-18T07:40:32.106Z,700.00
2018-09-18T07:41:32.110Z,964.00
2018-09-18T07:42:32.115Z,960.00
2018-09-18T07:43:32.117Z,960.00
2018-09-18T07:44:32.114Z,964.00
2018-09-18T07:45:32.117Z,948.00
2018-09-18T07:46:32.113Z,948.00
2018-09-18T07:47:32.117Z,948.00
2018-09-18T07:48:32.126Z,944.00
2018-09-18T07:49:32.117Z,948.00
2018-09-18T07:50:32.120Z,944.00
2018-09-18T07:51:32.120Z,940.00
2018-09-18T07:52:32.122Z,936.00
2018-09-18T07:53:32.130Z,948.00
2018-09-18T07:54:32.123Z,940.00
2018-09-18T07:55:32.132Z,932.00
2018-09-18T07:56:32.131Z,928.00
2018-09-18T07:57:32.137Z,908.00
2018-09-18T07:58:32.127Z,912.00
2018-09-18T07:59:32.143Z,900.00
2018-09-18T08:00:32.133Z,900.00
2018-09-18T08:01:32.141Z,908.00
2018-09-18T08:02:32.135Z,904.00
2018-09-18T08:03:32.153Z,896.00
2018-09-18T08:04:32.154Z,892.00
2018-09-18T08:05:32.135Z,892.00
2018-09-18T08:06:32.138Z,888.00
2018-09-18T08:07:32.133Z,888.00
2018-09-18T08:08:32.145Z,900.00
2018-09-18T08:09:32.144Z,888.00
2018-09-18T08:10:32.142Z,884.00
2018-09-18T08:11:32.150Z,888.00
2018-09-18T08:12:32.153Z,884.00
2018-09-18T08:13:32.157Z,888.00
2018-09-18T08:14:32.146Z,888.00
2018-09-18T08:15:32.160Z,884.00
2018-09-18T08:16:32.166Z,880.00
2018-09-18T08:17:32.163Z,876.00
2018-09-18T08:18:32.175Z,876.00
2018-09-18T08:19:32.303Z,872.00
2018-09-18T08:20:32.162Z,868.00
2018-09-18T08:21:32.181Z,868.00
2018-09-18T08:22:32.174Z,868.00
2018-09-18T08:23:32.265Z,824.00
2018-09-18T08:24:32.164Z,660.00
2018-09-18T08:25:32.205Z,660.00
2018-09-18T08:26:32.171Z,872.00
2018-09-18T08:27:32.170Z,656.00
2018-09-18T08:28:32.191Z,868.00
2018-09-18T08:29:32.178Z,868.00
2018-09-18T08:30:32.172Z,864.00
2018-09-18T08:31:32.186Z,864.00
2018-09-18T08:32:32.242Z,652.00
2018-09-18T08:33:32.182Z,648.00
2018-09-18T08:34:32.179Z,656.00
2018-09-18T08:35:32.186Z,652.00
2018-09-18T08:36:32.184Z,656.00
2018-09-18T08:37:32.195Z,656.00
2018-09-18T08:38:32.201Z,652.00
2018-09-18T08:39:32.196Z,636.00
2018-09-18T08:40:32.229Z,632.00
2018-09-18T08:41:32.191Z,632.00
2018-09-18T08:42:32.207Z,644.00
2018-09-18T08:43:32.199Z,620.00
2018-09-18T08:44:32.203Z,628.00
2018-09-18T08:45:32.211Z,656.00
2018-09-18T08:46:32.211Z,636.00
2018-09-18T08:47:32.232Z,636.00
2018-09-18T08:48:32.208Z,632.00
2018-09-18T08:49:32.228Z,636.00
2018-09-18T08:50:32.232Z,632.00
2018-09-18T08:51:32.232Z,636.00
2018-09-18T08:52:32.213Z,660.00
2018-09-18T08:53:32.219Z,632.00
2018-09-18T08:54:32.324Z,636.00
2018-09-18T08:55:32.224Z,612.00
2018-09-18T08:56:32.231Z,628.00
2018-09-18T08:57:32.241Z,616.00
2018-09-18T08:58:32.236Z,620.00
2018-09-18T08:59:32.232Z,620.00
2018-09-18T09:00:32.235Z,620.00
2018-09-18T09:01:32.257Z,612.00
2018-09-18T09:02:32.277Z,616.00
2018-09-18T09:03:32.239Z,620.00
2018-09-18T09:04:32.236Z,608.00
2018-09-18T09:05:32.267Z,620.00
2018-09-18T09:06:32.257Z,592.00
2018-09-18T09:07:32.376Z,668.00
2018-09-18T09:08:32.303Z,612.00
2018-09-18T09:09:32.302Z,624.00
2018-09-18T09:10:32.294Z,616.00
2018-09-18T09:11:32.274Z,620.00
2018-09-18T09:12:32.278Z,792.00
2018-09-18T09:13:32.276Z,576.00
2018-09-18T09:14:32.321Z,748.00
2018-09-18T09:15:32.315Z,624.00
2018-09-18T09:16:32.267Z,624.00
2018-09-18T09:17:32.274Z,652.00
2018-09-18T09:18:32.390Z,620.00
2018-09-18T09:19:32.295Z,600.00
2018-09-18T09:20:32.281Z,604.00
2018-09-18T09:21:32.279Z,612.00
2018-09-18T09:22:32.288Z,612.00
2018-09-18T09:23:32.291Z,612.00
2018-09-18T09:24:32.301Z,608.00
2018-09-18T09:25:32.300Z,604.00
2018-09-18T09:26:32.297Z,612.00
2018-09-18T09:27:32.316Z,608.00
2018-09-18T09:28:32.326Z,604.00
2018-09-18T09:29:32.331Z,728.00
2018-09-18T09:30:32.303Z,604.00
2018-09-18T09:31:32.327Z,612.00
2018-09-18T09:32:32.312Z,608.00
2018-09-18T09:33:32.321Z,608.00
2018-09-18T09:34:32.338Z,760.00
2018-09-18T09:35:32.312Z,708.00
2018-09-18T09:36:32.323Z,604.00
2018-09-18T09:37:32.343Z,608.00
2018-09-18T09:38:32.323Z,640.00
2018-09-18T09:39:32.333Z,636.00
2018-09-18T09:40:32.330Z,596.00
2018-09-18T09:41:32.337Z,600.00
2018-09-18T09:42:32.337Z,616.00
2018-09-18T09:43:32.341Z,624.00
2018-09-18T09:44:32.341Z,620.00
2018-09-18T09:45:32.346Z,612.00
2018-09-18T09:46:32.351Z,820.00
2018-09-18T09:47:32.361Z,764.00
2018-09-18T09:48:32.374Z,568.00
2018-09-18T09:49:32.360Z,796.00
2018-09-18T09:50:32.364Z,776.00
2018-09-18T09:51:32.384Z,800.00
2018-09-18T09:52:32.370Z,756.00
2018-09-18T09:53:32.373Z,612.00
2018-09-18T09:54:32.374Z,748.00
2018-09-18T09:55:32.402Z,744.00
2018-09-18T09:56:32.383Z,772.00
2018-09-18T09:57:32.380Z,732.00
2018-09-18T09:58:32.386Z,768.00
2018-09-18T09:59:32.443Z,736.00
2018-09-18T10:00:32.393Z,756.00
2018-09-18T10:01:32.398Z,712.00
2018-09-18T10:02:32.405Z,660.00
2018-09-18T10:03:32.405Z,644.00
2018-09-18T10:04:32.417Z,620.00
2018-09-18T10:05:32.407Z,616.00
2018-09-18T10:06:41.050Z,768.00
2018-09-18T10:08:25.834Z,760.00
2018-09-18T10:09:25.809Z,636.00
2018-09-18T10:10:25.850Z,576.00
2018-09-18T10:11:25.816Z,812.00
2018-09-18T10:12:25.824Z,776.00
2018-09-18T10:13:25.831Z,664.00
2018-09-18T10:14:25.860Z,508.00
2018-09-18T10:15:25.835Z,520.00
2018-09-18T10:16:25.837Z,548.00
2018-09-18T10:17:25.838Z,616.00
2018-09-18T10:18:25.844Z,492.00
2018-09-18T10:19:25.851Z,640.00
2018-09-18T10:20:25.845Z,536.00
2018-09-18T10:21:25.851Z,584.00
2018-09-18T10:22:25.856Z,644.00
2018-09-18T10:23:25.880Z,592.00
2018-09-18T10:24:25.873Z,540.00
2018-09-18T10:25:25.888Z,524.00
2018-09-18T10:26:26.046Z,576.00
2018-09-18T10:27:25.889Z,572.00
2018-09-18T10:28:25.880Z,616.00
2018-09-18T10:29:25.886Z,548.00
2018-09-18T10:30:25.893Z,556.00
2018-09-18T10:31:25.893Z,672.00
2018-09-18T10:32:25.933Z,568.00
2018-09-18T10:33:25.895Z,636.00
2018-09-18T10:34:25.904Z,708.00
2018-09-18T10:35:25.913Z,744.00
2018-09-18T10:36:25.910Z,724.00
2018-09-18T10:37:25.915Z,668.00
2018-09-18T10:38:25.920Z,700.00
2018-09-18T10:39:25.921Z,800.00
2018-09-18T10:40:25.969Z,668.00
2018-09-18T10:41:26.064Z,796.00
2018-09-18T10:42:25.949Z,688.00
2018-09-18T10:43:25.937Z,644.00
2018-09-18T10:44:25.948Z,648.00
2018-09-18T10:45:25.944Z,700.00
2018-09-18T10:46:25.953Z,756.00
2018-09-18T10:47:25.956Z,756.00
2018-09-18T10:48:25.957Z,708.00
2018-09-18T10:49:26.022Z,636.00
2018-09-18T10:50:25.966Z,752.00
2018-09-18T10:51:25.974Z,644.00
2018-09-18T10:52:25.992Z,664.00
2018-09-18T10:53:25.983Z,792.00
2018-09-18T10:54:25.978Z,600.00
2018-09-18T10:55:25.988Z,644.00
2018-09-18T10:56:25.999Z,812.00
2018-09-18T10:57:26.015Z,720.00
2018-09-18T10:58:33.645Z,628.00
2018-09-18T11:00:19.434Z,616.00
2018-09-18T11:01:19.417Z,724.00
2018-09-18T11:02:19.488Z,552.00
2018-09-18T11:03:19.414Z,604.00
2018-09-18T11:04:27.982Z,712.00
2018-09-18T11:05:28.059Z,716.00
2018-09-18T11:07:12.925Z,704.00
2018-09-18T11:08:20.540Z,800.00
2018-09-18T11:10:06.250Z,640.00
2018-09-18T11:11:15.946Z,812.00
2018-09-18T11:12:59.875Z,980.00
2018-09-18T11:14:09.269Z,788.00
2018-09-18T11:16:02.478Z,672.00
2018-09-18T11:18:24.683Z,684.00
2018-09-18T11:19:22.159Z,716.00
2018-09-18T11:21:07.955Z,860.00
2018-09-18T11:22:07.954Z,804.00
2018-09-18T11:24:01.363Z,660.00
2018-09-18T11:25:01.427Z,664.00
2018-09-18T11:26:01.365Z,824.00
2018-09-18T11:27:01.369Z,716.00
2018-09-18T11:28:01.375Z,740.00
2018-09-18T11:29:01.427Z,688.00
2018-09-18T11:31:22.576Z,632.00
2018-09-18T11:32:22.474Z,668.00
2018-09-18T11:33:22.444Z,796.00
2018-09-18T11:34:22.468Z,916.00
2018-09-18T11:35:22.458Z,816.00
2018-09-18T11:36:22.474Z,848.00
2018-09-18T11:37:22.484Z,808.00
2018-09-18T11:38:22.470Z,776.00
2018-09-18T11:39:22.474Z,640.00
2018-09-18T11:40:22.481Z,816.00
2018-09-18T11:41:22.494Z,864.00
2018-09-18T11:42:22.491Z,720.00
2018-09-18T11:43:22.497Z,752.00
2018-09-18T11:44:22.502Z,604.00
2018-09-18T11:45:22.531Z,696.00
2018-09-18T11:46:22.511Z,664.00
2018-09-18T11:47:22.513Z,584.00
2018-09-18T11:48:22.523Z,608.00
2018-09-18T11:49:22.524Z,592.00
2018-09-18T11:50:22.539Z,628.00
2018-09-18T11:51:22.614Z,824.00
2018-09-18T11:52:22.547Z,848.00
2018-09-18T11:53:22.544Z,732.00
2018-09-18T11:54:22.558Z,648.00
2018-09-18T11:55:22.563Z,916.00
2018-09-18T11:56:22.569Z,816.00
2018-09-18T11:57:22.566Z,672.00
2018-09-18T11:58:22.614Z,612.00
2018-09-18T11:59:22.584Z,592.00
2018-09-18T12:00:22.588Z,708.00
2018-09-18T12:01:22.595Z,576.00
2018-09-18T12:02:22.610Z,532.00
2018-09-18T12:03:22.607Z,540.00
2018-09-18T12:04:22.612Z,584.00
2018-09-18T12:05:22.616Z,644.00
2018-09-18T12:06:22.631Z,540.00
2018-09-18T12:07:22.627Z,476.00
2018-09-18T12:08:22.632Z,608.00
2018-09-18T12:09:22.636Z,536.00
2018-09-18T12:11:43.728Z,504.00
2018-09-18T12:12:43.704Z,692.00
2018-09-18T12:13:52.340Z,568.00
2018-09-18T12:15:47.183Z,632.00
2018-09-18T12:16:46.746Z,628.00
2018-09-18T12:18:31.543Z,620.00
2018-09-18T12:19:31.545Z,656.00
2018-09-18T12:20:31.539Z,700.00
2018-09-18T12:21:31.545Z,708.00
2018-09-18T12:22:31.656Z,688.00
2018-09-18T12:23:31.547Z,672.00
2018-09-18T12:24:41.075Z,668.00
2018-09-18T12:26:24.969Z,816.00
2018-09-18T12:27:24.960Z,828.00
2018-09-18T12:28:25.001Z,648.00
2018-09-18T12:29:34.592Z,660.00
2018-09-18T12:31:18.401Z,836.00
2018-09-18T12:32:18.388Z,768.00
2018-09-18T12:33:18.394Z,760.00
2018-09-18T12:34:18.411Z,792.00
2018-09-18T12:35:18.462Z,676.00
2018-09-18T12:36:18.438Z,608.00
2018-09-18T12:37:18.417Z,788.00
2018-09-18T12:38:18.426Z,624.00
2018-09-18T12:39:18.434Z,772.00
2018-09-18T12:40:18.441Z,760.00
2018-09-18T12:41:18.448Z,740.00
2018-09-18T12:42:27.249Z,596.00
2018-09-18T12:44:11.876Z,600.00
2018-09-18T12:45:11.891Z,676.00
2018-09-18T12:46:20.498Z,652.00
2018-09-18T12:48:14.364Z,708.00
2018-09-18T12:49:05.350Z,604.00
2018-09-18T12:51:36.371Z,608.00
2018-09-18T12:52:35.973Z,744.00
2018-09-18T12:54:20.734Z,584.00
2018-09-18T12:56:50.851Z,696.00
2018-09-18T12:59:11.938Z,652.00
2018-09-18T13:00:12.864Z,648.00
2018-09-18T13:01:56.254Z,672.00
2018-09-18T13:02:56.253Z,688.00
2018-09-18T13:03:56.294Z,704.00
2018-09-18T13:04:56.262Z,656.00
2018-09-18T13:05:56.297Z,728.00
2018-09-18T13:08:18.318Z,788.00
2018-09-18T13:09:18.294Z,732.00
2018-09-18T13:10:18.305Z,760.00
2018-09-18T13:11:18.309Z,760.00
2018-09-18T13:12:18.317Z,740.00
2018-09-18T13:13:18.326Z,776.00
2018-09-18T13:14:18.400Z,756.00
2018-09-18T13:15:18.351Z,764.00
2018-09-18T13:16:18.357Z,768.00
2018-09-18T13:17:18.379Z,768.00
2018-09-18T13:18:18.396Z,920.00
2018-09-18T13:19:18.593Z,776.00
2018-09-18T13:20:18.369Z,788.00
2018-09-18T13:21:18.401Z,884.00
2018-09-18T13:22:18.413Z,792.00
2018-09-18T13:23:27.022Z,792.00
2018-09-18T13:25:12.816Z,764.00
2018-09-18T13:26:12.809Z,780.00
2018-09-18T13:27:12.818Z,860.00